Ana Sayfa
METAR-TAF:

METAR-TAF

Havaalanları :

Piedras Negras, Meksika

Enlem: 28-42N, Boylam: 100-31W, yükseklik: 250 m

Güncel hava durumu gözlemi

Rapor saat 00:40 UTC de 8 saat ve 27 dakika önce yapıldı.
Rüzgar batı/kuzeybatıdan 5 kt
Sıcaklık 20°C
Nem 60%
Basınç 1024 hPa
Görüş mesafesi: 16.1 km
Açık gökyüzü

METAR: MMPG 070040Z 30005KT 10SM SKC 20/12 A3024

Saat: 03:07 (09:07 UTC)

Tahmin

Rapor saat 05:13 UTC de 3 saat ve 54 dakika önce yapıldı.
Ayın 07'si saat 06 UTC'den ayın 08'si saat 06 UTC'ye kadar geçerli Tahmin
Rüzgar batı/kuzeybatıdan 5 kt
Görüş mesafesi: 10 km
Açık gökyüzü
Ayın 07'si saat 1800 UTC'den
Rüzgar güneydoğudan 10 kt
Görüş mesafesi: 10 km
Açık gökyüzü
Ayın 08'si saat 0300 UTC'den
Rüzgar güneydoğudan 5 kt
Görüş mesafesi: 10 km
1500 ft yükseklikte parçalı çok bulutlu

TAF: MMPG 070513Z 0706/0806 30005KT P6SM SKC FM071800 13010KT P6SM SKC FM080300 13005KT P6SM BKN015

4.000'den fazla havaalanı için hava durumu gözlemleri ve tahminleri (METAR ve TAF raporları).

Kullanılabilir istasyonlar harita üzerinde sarı ve kırmızı noktalarla gösterilir.

İstasyonun adını görmek için fareyi noktanın üzerinde gezdirin.

Sonrasında hava gözlem ve tahminlerini görmek için tıklayın.

Haritayı değiştirmek için: yaklaştırmak için siyah artı işaretli yeşil düğmeye ve uzaklaştırmak için de eksi işaretli düğmeye hızla tıklayın; bitişik haritalar için yeşil okları kullanın.


METAR-TAF: